sensor_id;sensor_type;location;lat;lon;timestamp;temperature;humidity
81315;DHT22;72214;52.510;5.718;2023-09-08T00:00:40;21.30;66.20
81315;DHT22;72214;52.510;5.718;2023-09-08T00:03:09;21.30;66.20
81315;DHT22;72214;52.510;5.718;2023-09-08T00:05:38;21.30;66.30
81315;DHT22;72214;52.510;5.718;2023-09-08T00:08:07;21.20;66.40
81315;DHT22;72214;52.510;5.718;2023-09-08T00:10:39;21.20;66.40
81315;DHT22;72214;52.510;5.718;2023-09-08T00:13:08;21.10;66.50
81315;DHT22;72214;52.510;5.718;2023-09-08T00:15:37;21.10;66.50
81315;DHT22;72214;52.510;5.718;2023-09-08T00:18:07;21.10;66.50
81315;DHT22;72214;52.510;5.718;2023-09-08T00:20:36;21.10;66.60
81315;DHT22;72214;52.510;5.718;2023-09-08T00:23:05;21.00;66.60
81315;DHT22;72214;52.510;5.718;2023-09-08T00:25:34;21.00;66.80
81315;DHT22;72214;52.510;5.718;2023-09-08T00:28:06;20.90;66.80
81315;DHT22;72214;52.510;5.718;2023-09-08T00:30:35;20.90;67.00
81315;DHT22;72214;52.510;5.718;2023-09-08T00:33:04;20.80;67.00
81315;DHT22;72214;52.510;5.718;2023-09-08T00:35:35;20.80;67.00
81315;DHT22;72214;52.510;5.718;2023-09-08T00:38:04;20.80;67.00
81315;DHT22;72214;52.510;5.718;2023-09-08T00:40:33;20.80;67.00
81315;DHT22;72214;52.510;5.718;2023-09-08T00:43:05;20.70;67.10
81315;DHT22;72214;52.510;5.718;2023-09-08T00:45:39;20.70;67.10
81315;DHT22;72214;52.510;5.718;2023-09-08T00:48:09;20.60;67.20
81315;DHT22;72214;52.510;5.718;2023-09-08T00:50:39;20.60;67.20
81315;DHT22;72214;52.510;5.718;2023-09-08T00:53:09;20.60;67.20
81315;DHT22;72214;52.510;5.718;2023-09-08T00:55:39;20.60;67.20
81315;DHT22;72214;52.510;5.718;2023-09-08T00:58:11;20.60;67.20
81315;DHT22;72214;52.510;5.718;2023-09-08T01:00:40;20.50;67.30
81315;DHT22;72214;52.510;5.718;2023-09-08T01:03:11;20.50;67.30
81315;DHT22;72214;52.510;5.718;2023-09-08T01:05:40;20.50;67.40
81315;DHT22;72214;52.510;5.718;2023-09-08T01:08:10;20.50;67.40
81315;DHT22;72214;52.510;5.718;2023-09-08T01:10:40;20.40;67.50
81315;DHT22;72214;52.510;5.718;2023-09-08T01:13:12;20.40;67.50
81315;DHT22;72214;52.510;5.718;2023-09-08T01:15:41;20.30;67.60
81315;DHT22;72214;52.510;5.718;2023-09-08T01:18:11;20.30;67.50
81315;DHT22;72214;52.510;5.718;2023-09-08T01:21:03;20.30;67.50
81315;DHT22;72214;52.510;5.718;2023-09-08T01:23:47;20.30;67.70
81315;DHT22;72214;52.510;5.718;2023-09-08T01:26:21;20.30;67.70
81315;DHT22;72214;52.510;5.718;2023-09-08T01:28:53;20.30;67.70
81315;DHT22;72214;52.510;5.718;2023-09-08T01:31:23;20.20;67.70
81315;DHT22;72214;52.510;5.718;2023-09-08T01:33:53;20.20;67.80
81315;DHT22;72214;52.510;5.718;2023-09-08T01:36:22;20.10;67.90
81315;DHT22;72214;52.510;5.718;2023-09-08T01:38:52;20.10;67.90
81315;DHT22;72214;52.510;5.718;2023-09-08T01:41:24;20.10;67.90
81315;DHT22;72214;52.510;5.718;2023-09-08T01:43:53;20.10;68.00
81315;DHT22;72214;52.510;5.718;2023-09-08T01:46:24;20.00;68.00
81315;DHT22;72214;52.510;5.718;2023-09-08T01:48:53;20.00;68.00
81315;DHT22;72214;52.510;5.718;2023-09-08T01:51:22;20.00;68.10
81315;DHT22;72214;52.510;5.718;2023-09-08T01:53:51;20.00;68.20
81315;DHT22;72214;52.510;5.718;2023-09-08T01:56:23;20.00;68.20
81315;DHT22;72214;52.510;5.718;2023-09-08T01:58:52;20.00;68.20
81315;DHT22;72214;52.510;5.718;2023-09-08T02:01:21;20.00;68.10
81315;DHT22;72214;52.510;5.718;2023-09-08T02:03:50;20.00;68.20
81315;DHT22;72214;52.510;5.718;2023-09-08T02:06:20;20.00;68.20
81315;DHT22;72214;52.510;5.718;2023-09-08T02:08:49;20.00;68.20
81315;DHT22;72214;52.510;5.718;2023-09-08T02:11:19;20.00;68.20
81315;DHT22;72214;52.510;5.718;2023-09-08T02:13:52;19.90;68.30
81315;DHT22;72214;52.510;5.718;2023-09-08T02:16:21;19.90;68.30
81315;DHT22;72214;52.510;5.718;2023-09-08T02:18:51;19.90;68.30
81315;DHT22;72214;52.510;5.718;2023-09-08T02:21:21;19.90;68.40
81315;DHT22;72214;52.510;5.718;2023-09-08T02:23:50;19.90;68.40
81315;DHT22;72214;52.510;5.718;2023-09-08T02:26:19;19.80;68.50
81315;DHT22;72214;52.510;5.718;2023-09-08T02:28:52;19.80;68.50
81315;DHT22;72214;52.510;5.718;2023-09-08T02:31:21;19.70;68.60
81315;DHT22;72214;52.510;5.718;2023-09-08T02:33:50;19.70;68.70
81315;DHT22;72214;52.510;5.718;2023-09-08T02:36:19;19.70;68.70
81315;DHT22;72214;52.510;5.718;2023-09-08T02:38:52;19.70;68.80
81315;DHT22;72214;52.510;5.718;2023-09-08T02:41:22;19.60;68.90
81315;DHT22;72214;52.510;5.718;2023-09-08T02:43:54;19.60;68.90
81315;DHT22;72214;52.510;5.718;2023-09-08T02:46:23;19.50;69.00
81315;DHT22;72214;52.510;5.718;2023-09-08T02:48:54;19.50;69.00
81315;DHT22;72214;52.510;5.718;2023-09-08T02:51:23;19.50;69.00
81315;DHT22;72214;52.510;5.718;2023-09-08T02:53:52;19.50;69.10
81315;DHT22;72214;52.510;5.718;2023-09-08T02:56:21;19.50;69.10
81315;DHT22;72214;52.510;5.718;2023-09-08T02:58:55;19.50;69.20
81315;DHT22;72214;52.510;5.718;2023-09-08T03:01:24;19.50;69.20
81315;DHT22;72214;52.510;5.718;2023-09-08T03:03:53;19.50;69.20
81315;DHT22;72214;52.510;5.718;2023-09-08T03:06:23;19.40;69.30
81315;DHT22;72214;52.510;5.718;2023-09-08T03:08:53;19.40;69.30
81315;DHT22;72214;52.510;5.718;2023-09-08T03:11:23;19.40;69.30
81315;DHT22;72214;52.510;5.718;2023-09-08T03:13:55;19.30;69.40
81315;DHT22;72214;52.510;5.718;2023-09-08T03:16:24;19.30;69.50
81315;DHT22;72214;52.510;5.718;2023-09-08T03:18:53;19.20;69.50
81315;DHT22;72214;52.510;5.718;2023-09-08T03:21:24;19.20;69.60
81315;DHT22;72214;52.510;5.718;2023-09-08T03:23:53;19.20;69.60
81315;DHT22;72214;52.510;5.718;2023-09-08T03:26:22;19.20;69.60
81315;DHT22;72214;52.510;5.718;2023-09-08T03:28:55;19.20;69.60
81315;DHT22;72214;52.510;5.718;2023-09-08T03:31:24;19.20;69.70
81315;DHT22;72214;52.510;5.718;2023-09-08T03:33:56;19.20;69.70
81315;DHT22;72214;52.510;5.718;2023-09-08T03:36:26;19.20;69.70
81315;DHT22;72214;52.510;5.718;2023-09-08T03:38:57;19.10;69.80
81315;DHT22;72214;52.510;5.718;2023-09-08T03:41:26;19.10;69.90
81315;DHT22;72214;52.510;5.718;2023-09-08T03:43:58;19.10;69.80
81315;DHT22;72214;52.510;5.718;2023-09-08T03:46:27;19.10;70.00
81315;DHT22;72214;52.510;5.718;2023-09-08T03:48:57;19.10;70.00
81315;DHT22;72214;52.510;5.718;2023-09-08T03:51:27;19.10;70.00
81315;DHT22;72214;52.510;5.718;2023-09-08T03:53:57;19.10;70.00
81315;DHT22;72214;52.510;5.718;2023-09-08T03:56:26;19.10;70.10
81315;DHT22;72214;52.510;5.718;2023-09-08T03:58:58;19.00;70.10
81315;DHT22;72214;52.510;5.718;2023-09-08T04:01:27;19.00;70.20
81315;DHT22;72214;52.510;5.718;2023-09-08T04:03:56;19.00;70.20
81315;DHT22;72214;52.510;5.718;2023-09-08T04:06:25;19.00;70.20
81315;DHT22;72214;52.510;5.718;2023-09-08T04:08:55;19.00;70.20
81315;DHT22;72214;52.510;5.718;2023-09-08T04:11:24;18.90;70.30
81315;DHT22;72214;52.510;5.718;2023-09-08T04:13:53;18.90;70.30
81315;DHT22;72214;52.510;5.718;2023-09-08T04:16:25;18.90;70.40
81315;DHT22;72214;52.510;5.718;2023-09-08T04:18:55;18.90;70.40
81315;DHT22;72214;52.510;5.718;2023-09-08T04:21:24;18.90;70.50
81315;DHT22;72214;52.510;5.718;2023-09-08T04:23:53;18.90;70.50
81315;DHT22;72214;52.510;5.718;2023-09-08T04:26:23;18.90;70.50
81315;DHT22;72214;52.510;5.718;2023-09-08T04:28:52;18.90;70.50
81315;DHT22;72214;52.510;5.718;2023-09-08T04:31:24;18.80;70.60
81315;DHT22;72214;52.510;5.718;2023-09-08T04:33:53;18.80;70.60
81315;DHT22;72214;52.510;5.718;2023-09-08T04:36:23;18.80;70.60
81315;DHT22;72214;52.510;5.718;2023-09-08T04:38:52;18.80;70.60
81315;DHT22;72214;52.510;5.718;2023-09-08T04:41:21;18.80;70.70
81315;DHT22;72214;52.510;5.718;2023-09-08T04:43:51;18.70;70.70
81315;DHT22;72214;52.510;5.718;2023-09-08T04:46:24;18.70;70.70
81315;DHT22;72214;52.510;5.718;2023-09-08T04:48:53;18.70;70.80
81315;DHT22;72214;52.510;5.718;2023-09-08T04:51:24;18.60;70.90
81315;DHT22;72214;52.510;5.718;2023-09-08T04:53:53;18.60;70.80
81315;DHT22;72214;52.510;5.718;2023-09-08T04:56:22;18.60;70.90
81315;DHT22;72214;52.510;5.718;2023-09-08T04:58:52;18.60;70.90
81315;DHT22;72214;52.510;5.718;2023-09-08T05:01:25;18.60;70.90
81315;DHT22;72214;52.510;5.718;2023-09-08T05:03:56;18.60;71.00
81315;DHT22;72214;52.510;5.718;2023-09-08T05:06:25;18.50;71.00
81315;DHT22;72214;52.510;5.718;2023-09-08T05:08:55;18.50;71.00
81315;DHT22;72214;52.510;5.718;2023-09-08T05:11:26;18.50;71.10
81315;DHT22;72214;52.510;5.718;2023-09-08T05:13:55;18.50;71.10
81315;DHT22;72214;52.510;5.718;2023-09-08T05:16:27;18.50;71.10
81315;DHT22;72214;52.510;5.718;2023-09-08T05:19:12;18.50;71.20
81315;DHT22;72214;52.510;5.718;2023-09-08T05:21:42;18.40;71.20
81315;DHT22;72214;52.510;5.718;2023-09-08T05:24:12;18.40;71.20
81315;DHT22;72214;52.510;5.718;2023-09-08T05:26:42;18.40;71.20
81315;DHT22;72214;52.510;5.718;2023-09-08T05:29:11;18.40;71.20
81315;DHT22;72214;52.510;5.718;2023-09-08T05:31:43;18.40;71.30
81315;DHT22;72214;52.510;5.718;2023-09-08T05:34:12;18.30;71.40
81315;DHT22;72214;52.510;5.718;2023-09-08T05:36:42;18.30;71.40
81315;DHT22;72214;52.510;5.718;2023-09-08T05:39:14;18.30;71.50
81315;DHT22;72214;52.510;5.718;2023-09-08T05:41:45;18.30;71.50
81315;DHT22;72214;52.510;5.718;2023-09-08T05:44:14;18.30;71.50
81315;DHT22;72214;52.510;5.718;2023-09-08T05:46:46;18.20;71.60
81315;DHT22;72214;52.510;5.718;2023-09-08T05:49:15;18.30;71.70
81315;DHT22;72214;52.510;5.718;2023-09-08T05:51:45;18.30;71.60
81315;DHT22;72214;52.510;5.718;2023-09-08T05:54:14;18.30;71.70
81315;DHT22;72214;52.510;5.718;2023-09-08T05:56:44;18.30;71.70
81315;DHT22;72214;52.510;5.718;2023-09-08T05:59:13;18.30;71.70
81315;DHT22;72214;52.510;5.718;2023-09-08T06:01:45;18.30;71.80
81315;DHT22;72214;52.510;5.718;2023-09-08T06:04:15;18.40;71.80
81315;DHT22;72214;52.510;5.718;2023-09-08T06:06:44;18.40;71.80
81315;DHT22;72214;52.510;5.718;2023-09-08T06:09:15;18.40;71.80
81315;DHT22;72214;52.510;5.718;2023-09-08T06:11:44;18.40;71.90
81315;DHT22;72214;52.510;5.718;2023-09-08T06:14:14;18.40;71.90
81315;DHT22;72214;52.510;5.718;2023-09-08T06:16:49;18.50;71.90
81315;DHT22;72214;52.510;5.718;2023-09-08T06:19:18;18.50;72.00
81315;DHT22;72214;52.510;5.718;2023-09-08T06:21:47;18.50;72.00
81315;DHT22;72214;52.510;5.718;2023-09-08T06:24:16;18.50;72.00
81315;DHT22;72214;52.510;5.718;2023-09-08T06:26:46;18.50;72.00
81315;DHT22;72214;52.510;5.718;2023-09-08T06:29:15;18.50;72.00
81315;DHT22;72214;52.510;5.718;2023-09-08T06:31:48;18.60;72.10
81315;DHT22;72214;52.510;5.718;2023-09-08T06:34:17;18.60;72.10
81315;DHT22;72214;52.510;5.718;2023-09-08T06:36:48;18.60;72.10
81315;DHT22;72214;52.510;5.718;2023-09-08T06:39:17;18.70;72.20
81315;DHT22;72214;52.510;5.718;2023-09-08T06:41:46;18.70;72.20
81315;DHT22;72214;52.510;5.718;2023-09-08T06:44:17;18.80;72.20
81315;DHT22;72214;52.510;5.718;2023-09-08T06:46:49;18.90;72.20
81315;DHT22;72214;52.510;5.718;2023-09-08T06:49:18;18.90;72.20
81315;DHT22;72214;52.510;5.718;2023-09-08T06:51:48;19.00;72.20
81315;DHT22;72214;52.510;5.718;2023-09-08T06:54:17;19.10;72.20
81315;DHT22;72214;52.510;5.718;2023-09-08T06:56:46;19.20;72.20
81315;DHT22;72214;52.510;5.718;2023-09-08T06:59:16;19.20;72.20
81315;DHT22;72214;52.510;5.718;2023-09-08T07:01:48;19.30;72.20
81315;DHT22;72214;52.510;5.718;2023-09-08T07:04:18;19.40;72.20
81315;DHT22;72214;52.510;5.718;2023-09-08T07:06:48;19.50;72.10
81315;DHT22;72214;52.510;5.718;2023-09-08T07:09:21;19.50;72.10
81315;DHT22;72214;52.510;5.718;2023-09-08T07:11:50;19.70;72.10
81315;DHT22;72214;52.510;5.718;2023-09-08T07:14:19;19.70;72.10
81315;DHT22;72214;52.510;5.718;2023-09-08T07:16:52;19.80;72.10
81315;DHT22;72214;52.510;5.718;2023-09-08T07:19:21;19.90;72.10
81315;DHT22;72214;52.510;5.718;2023-09-08T07:21:51;20.00;72.00
81315;DHT22;72214;52.510;5.718;2023-09-08T07:24:21;20.10;72.00
81315;DHT22;72214;52.510;5.718;2023-09-08T07:26:50;20.20;71.90
81315;DHT22;72214;52.510;5.718;2023-09-08T07:29:19;20.30;71.80
81315;DHT22;72214;52.510;5.718;2023-09-08T07:31:51;20.40;71.80
81315;DHT22;72214;52.510;5.718;2023-09-08T07:34:21;20.50;71.80
81315;DHT22;72214;52.510;5.718;2023-09-08T07:36:50;20.50;71.80
81315;DHT22;72214;52.510;5.718;2023-09-08T07:39:19;20.60;71.60
81315;DHT22;72214;52.510;5.718;2023-09-08T07:41:48;20.70;71.60
81315;DHT22;72214;52.510;5.718;2023-09-08T07:44:18;20.80;71.50
81315;DHT22;72214;52.510;5.718;2023-09-08T07:46:47;20.90;71.50
81315;DHT22;72214;52.510;5.718;2023-09-08T07:49:20;21.00;71.50
81315;DHT22;72214;52.510;5.718;2023-09-08T07:51:49;21.10;71.50
81315;DHT22;72214;52.510;5.718;2023-09-08T07:54:18;21.10;71.50
81315;DHT22;72214;52.510;5.718;2023-09-08T07:56:47;21.20;71.50
81315;DHT22;72214;52.510;5.718;2023-09-08T07:59:17;21.40;71.40
81315;DHT22;72214;52.510;5.718;2023-09-08T08:01:46;21.50;71.30
81315;DHT22;72214;52.510;5.718;2023-09-08T08:04:15;21.50;71.30
81315;DHT22;72214;52.510;5.718;2023-09-08T08:06:47;21.70;71.20
81315;DHT22;72214;52.510;5.718;2023-09-08T08:09:16;21.80;71.10
81315;DHT22;72214;52.510;5.718;2023-09-08T08:11:45;21.90;70.90
81315;DHT22;72214;52.510;5.718;2023-09-08T08:14:15;22.00;70.80
81315;DHT22;72214;52.510;5.718;2023-09-08T08:16:44;22.10;70.70
81315;DHT22;72214;52.510;5.718;2023-09-08T08:19:13;22.20;70.60
81315;DHT22;72214;52.510;5.718;2023-09-08T08:21:43;22.30;70.50
81315;DHT22;72214;52.510;5.718;2023-09-08T08:24:14;22.50;70.50
81315;DHT22;72214;52.510;5.718;2023-09-08T08:26:44;22.50;70.40
81315;DHT22;72214;52.510;5.718;2023-09-08T08:29:13;22.60;70.30
81315;DHT22;72214;52.510;5.718;2023-09-08T08:31:42;22.70;70.10
81315;DHT22;72214;52.510;5.718;2023-09-08T08:34:11;22.80;70.00
81315;DHT22;72214;52.510;5.718;2023-09-08T08:36:41;22.90;69.90
81315;DHT22;72214;52.510;5.718;2023-09-08T08:39:10;23.00;69.80
81315;DHT22;72214;52.510;5.718;2023-09-08T08:41:43;23.20;69.70
81315;DHT22;72214;52.510;5.718;2023-09-08T08:44:13;23.20;69.60
81315;DHT22;72214;52.510;5.718;2023-09-08T08:46:45;23.30;69.70
81315;DHT22;72214;52.510;5.718;2023-09-08T08:49:15;23.40;69.70
81315;DHT22;72214;52.510;5.718;2023-09-08T08:51:45;23.50;69.60
81315;DHT22;72214;52.510;5.718;2023-09-08T08:54:15;23.60;69.50
81315;DHT22;72214;52.510;5.718;2023-09-08T08:56:48;23.60;69.40
81315;DHT22;72214;52.510;5.718;2023-09-08T08:59:18;23.80;69.30
81315;DHT22;72214;52.510;5.718;2023-09-08T09:01:48;23.90;69.10
81315;DHT22;72214;52.510;5.718;2023-09-08T09:04:18;24.00;69.00
81315;DHT22;72214;52.510;5.718;2023-09-08T09:06:47;24.00;68.90
81315;DHT22;72214;52.510;5.718;2023-09-08T09:09:17;24.20;68.70
81315;DHT22;72214;52.510;5.718;2023-09-08T09:11:49;24.20;68.60
81315;DHT22;72214;52.510;5.718;2023-09-08T09:14:18;24.40;68.60
81315;DHT22;72214;52.510;5.718;2023-09-08T09:16:49;24.40;68.60
81315;DHT22;72214;52.510;5.718;2023-09-08T09:19:19;24.50;68.40
81315;DHT22;72214;52.510;5.718;2023-09-08T09:21:54;24.60;68.30
81315;DHT22;72214;52.510;5.718;2023-09-08T09:24:32;24.70;68.20
81315;DHT22;72214;52.510;5.718;2023-09-08T09:27:06;24.80;68.10
81315;DHT22;72214;52.510;5.718;2023-09-08T09:29:44;25.00;68.00
81315;DHT22;72214;52.510;5.718;2023-09-08T09:32:15;25.00;67.90
81315;DHT22;72214;52.510;5.718;2023-09-08T09:34:48;25.00;67.90
81315;DHT22;72214;52.510;5.718;2023-09-08T09:37:19;25.10;67.90
81315;DHT22;72214;52.510;5.718;2023-09-08T09:39:49;25.20;67.80
81315;DHT22;72214;52.510;5.718;2023-09-08T09:42:21;25.30;67.70
81315;DHT22;72214;52.510;5.718;2023-09-08T09:44:51;25.40;67.60
81315;DHT22;72214;52.510;5.718;2023-09-08T09:47:21;25.40;67.60
81315;DHT22;72214;52.510;5.718;2023-09-08T09:49:51;25.50;67.50
81315;DHT22;72214;52.510;5.718;2023-09-08T09:52:24;25.60;67.50
81315;DHT22;72214;52.510;5.718;2023-09-08T09:54:54;25.70;67.30
81315;DHT22;72214;52.510;5.718;2023-09-08T09:57:26;25.80;67.20
81315;DHT22;72214;52.510;5.718;2023-09-08T09:59:56;25.80;67.10
81315;DHT22;72214;52.510;5.718;2023-09-08T10:02:27;25.90;66.90
81315;DHT22;72214;52.510;5.718;2023-09-08T10:04:56;26.00;66.90
81315;DHT22;72214;52.510;5.718;2023-09-08T10:07:26;26.00;66.90
81315;DHT22;72214;52.510;5.718;2023-09-08T10:09:55;26.10;66.70
81315;DHT22;72214;52.510;5.718;2023-09-08T10:12:28;26.20;66.60
81315;DHT22;72214;52.510;5.718;2023-09-08T10:14:58;26.20;66.50
81315;DHT22;72214;52.510;5.718;2023-09-08T10:17:30;26.30;66.40
81315;DHT22;72214;52.510;5.718;2023-09-08T10:20:01;26.40;66.30
81315;DHT22;72214;52.510;5.718;2023-09-08T10:22:38;26.60;66.20
81315;DHT22;72214;52.510;5.718;2023-09-08T10:25:12;26.70;66.10
81315;DHT22;72214;52.510;5.718;2023-09-08T10:27:44;26.70;66.00
81315;DHT22;72214;52.510;5.718;2023-09-08T10:30:14;26.80;66.00
81315;DHT22;72214;52.510;5.718;2023-09-08T10:32:48;26.90;65.90
81315;DHT22;72214;52.510;5.718;2023-09-08T10:35:18;27.00;65.80
81315;DHT22;72214;52.510;5.718;2023-09-08T10:37:48;27.10;65.60
81315;DHT22;72214;52.510;5.718;2023-09-08T10:40:21;27.10;65.50
81315;DHT22;72214;52.510;5.718;2023-09-08T10:43:06;27.20;65.40
81315;DHT22;72214;52.510;5.718;2023-09-08T10:45:35;27.30;65.20
81315;DHT22;72214;52.510;5.718;2023-09-08T10:48:06;27.40;65.30
81315;DHT22;72214;52.510;5.718;2023-09-08T10:50:39;27.50;65.30
81315;DHT22;72214;52.510;5.718;2023-09-08T10:53:16;27.70;65.20
81315;DHT22;72214;52.510;5.718;2023-09-08T10:55:46;27.80;64.90
81315;DHT22;72214;52.510;5.718;2023-09-08T10:58:31;27.80;64.80
81315;DHT22;72214;52.510;5.718;2023-09-08T11:01:03;27.90;64.70
81315;DHT22;72214;52.510;5.718;2023-09-08T11:03:44;28.00;64.70
81315;DHT22;72214;52.510;5.718;2023-09-08T11:06:16;28.10;64.20
81315;DHT22;72214;52.510;5.718;2023-09-08T11:08:48;28.20;64.20
81315;DHT22;72214;52.510;5.718;2023-09-08T11:11:19;28.30;64.00
81315;DHT22;72214;52.510;5.718;2023-09-08T11:13:51;28.40;64.00
81315;DHT22;72214;52.510;5.718;2023-09-08T11:16:20;28.50;63.70
81315;DHT22;72214;52.510;5.718;2023-09-08T11:18:55;28.60;63.70
81315;DHT22;72214;52.510;5.718;2023-09-08T11:21:24;28.70;63.50
81315;DHT22;72214;52.510;5.718;2023-09-08T11:24:01;28.70;63.30
81315;DHT22;72214;52.510;5.718;2023-09-08T11:26:33;28.90;63.20
81315;DHT22;72214;52.510;5.718;2023-09-08T11:29:05;28.90;63.00
81315;DHT22;72214;52.510;5.718;2023-09-08T11:31:34;29.00;62.90
81315;DHT22;72214;52.510;5.718;2023-09-08T11:34:04;29.00;62.70
81315;DHT22;72214;52.510;5.718;2023-09-08T11:36:34;29.10;62.60
81315;DHT22;72214;52.510;5.718;2023-09-08T11:39:04;29.20;62.40
81315;DHT22;72214;52.510;5.718;2023-09-08T11:41:35;29.30;62.50
81315;DHT22;72214;52.510;5.718;2023-09-08T11:44:07;29.40;62.40
81315;DHT22;72214;52.510;5.718;2023-09-08T11:46:37;29.50;62.10
81315;DHT22;72214;52.510;5.718;2023-09-08T11:49:06;29.60;62.10
81315;DHT22;72214;52.510;5.718;2023-09-08T11:51:36;29.70;61.90
81315;DHT22;72214;52.510;5.718;2023-09-08T11:54:05;29.80;61.70
81315;DHT22;72214;52.510;5.718;2023-09-08T11:56:34;29.90;61.50
81315;DHT22;72214;52.510;5.718;2023-09-08T11:59:07;30.00;61.40
81315;DHT22;72214;52.510;5.718;2023-09-08T12:01:37;30.00;61.20
81315;DHT22;72214;52.510;5.718;2023-09-08T12:04:06;30.00;61.20
81315;DHT22;72214;52.510;5.718;2023-09-08T12:06:35;30.10;61.00
81315;DHT22;72214;52.510;5.718;2023-09-08T12:09:04;30.10;60.80
81315;DHT22;72214;52.510;5.718;2023-09-08T12:11:34;30.10;60.70
81315;DHT22;72214;52.510;5.718;2023-09-08T12:14:11;30.30;60.70
81315;DHT22;72214;52.510;5.718;2023-09-08T12:16:41;30.30;60.50
81315;DHT22;72214;52.510;5.718;2023-09-08T12:19:28;30.50;60.30
81315;DHT22;72214;52.510;5.718;2023-09-08T12:22:01;30.50;60.00
81315;DHT22;72214;52.510;5.718;2023-09-08T12:24:48;30.60;60.00
81315;DHT22;72214;52.510;5.718;2023-09-08T12:27:19;30.70;59.40
81315;DHT22;72214;52.510;5.718;2023-09-08T12:30:00;30.70;59.60
81315;DHT22;72214;52.510;5.718;2023-09-08T12:32:31;30.70;59.30
81315;DHT22;72214;52.510;5.718;2023-09-08T12:35:03;30.70;59.40
81315;DHT22;72214;52.510;5.718;2023-09-08T12:37:33;30.70;59.30
81315;DHT22;72214;52.510;5.718;2023-09-08T12:40:04;30.80;59.20
81315;DHT22;72214;52.510;5.718;2023-09-08T12:42:33;30.90;59.00
81315;DHT22;72214;52.510;5.718;2023-09-08T12:45:07;31.00;58.90
81315;DHT22;72214;52.510;5.718;2023-09-08T12:47:36;31.00;58.60
81315;DHT22;72214;52.510;5.718;2023-09-08T12:50:06;31.10;58.60
81315;DHT22;72214;52.510;5.718;2023-09-08T12:52:36;31.10;58.60
81315;DHT22;72214;52.510;5.718;2023-09-08T12:55:05;31.20;58.40
81315;DHT22;72214;52.510;5.718;2023-09-08T12:57:35;31.30;58.20
81315;DHT22;72214;52.510;5.718;2023-09-08T13:00:08;31.40;58.00
81315;DHT22;72214;52.510;5.718;2023-09-08T13:02:37;31.40;57.70
81315;DHT22;72214;52.510;5.718;2023-09-08T13:05:07;31.50;57.80
81315;DHT22;72214;52.510;5.718;2023-09-08T13:07:37;31.50;57.70
81315;DHT22;72214;52.510;5.718;2023-09-08T13:10:07;31.60;57.70
81315;DHT22;72214;52.510;5.718;2023-09-08T13:12:37;31.60;57.50
81315;DHT22;72214;52.510;5.718;2023-09-08T13:15:09;31.60;57.30
81315;DHT22;72214;52.510;5.718;2023-09-08T13:17:38;31.70;57.00
81315;DHT22;72214;52.510;5.718;2023-09-08T13:20:09;31.70;56.90
81315;DHT22;72214;52.510;5.718;2023-09-08T13:22:38;31.80;57.00
81315;DHT22;72214;52.510;5.718;2023-09-08T13:25:08;31.80;57.00
81315;DHT22;72214;52.510;5.718;2023-09-08T13:27:39;31.80;56.90
81315;DHT22;72214;52.510;5.718;2023-09-08T13:30:13;31.90;56.80
81315;DHT22;72214;52.510;5.718;2023-09-08T13:32:44;31.90;56.60
81315;DHT22;72214;52.510;5.718;2023-09-08T13:35:13;31.90;56.50
81315;DHT22;72214;52.510;5.718;2023-09-08T13:37:42;31.90;56.40
81315;DHT22;72214;52.510;5.718;2023-09-08T13:40:11;31.90;56.40
81315;DHT22;72214;52.510;5.718;2023-09-08T13:42:41;31.90;56.30
81315;DHT22;72214;52.510;5.718;2023-09-08T13:45:13;32.00;56.30
81315;DHT22;72214;52.510;5.718;2023-09-08T13:47:43;32.00;56.30
81315;DHT22;72214;52.510;5.718;2023-09-08T13:50:12;32.00;56.30
81315;DHT22;72214;52.510;5.718;2023-09-08T13:52:41;32.00;56.20
81315;DHT22;72214;52.510;5.718;2023-09-08T13:55:10;32.00;56.30
81315;DHT22;72214;52.510;5.718;2023-09-08T13:57:39;32.10;56.30
81315;DHT22;72214;52.510;5.718;2023-09-08T14:00:09;32.10;56.20
81315;DHT22;72214;52.510;5.718;2023-09-08T14:02:41;32.20;56.20
81315;DHT22;72214;52.510;5.718;2023-09-08T14:05:11;32.20;56.30
81315;DHT22;72214;52.510;5.718;2023-09-08T14:07:40;32.20;56.40
81315;DHT22;72214;52.510;5.718;2023-09-08T14:10:09;32.20;56.40
81315;DHT22;72214;52.510;5.718;2023-09-08T14:12:38;32.20;56.30
81315;DHT22;72214;52.510;5.718;2023-09-08T14:15:08;32.20;56.30
81315;DHT22;72214;52.510;5.718;2023-09-08T14:17:44;32.30;56.20
81315;DHT22;72214;52.510;5.718;2023-09-08T14:20:13;32.30;56.00
81315;DHT22;72214;52.510;5.718;2023-09-08T14:22:42;32.30;56.00
81315;DHT22;72214;52.510;5.718;2023-09-08T14:25:11;32.40;56.00
81315;DHT22;72214;52.510;5.718;2023-09-08T14:27:41;32.50;55.90
81315;DHT22;72214;52.510;5.718;2023-09-08T14:30:10;32.50;56.00
81315;DHT22;72214;52.510;5.718;2023-09-08T14:32:39;32.50;56.00
81315;DHT22;72214;52.510;5.718;2023-09-08T14:35:11;32.50;55.90
81315;DHT22;72214;52.510;5.718;2023-09-08T14:37:41;32.60;55.80
81315;DHT22;72214;52.510;5.718;2023-09-08T14:40:11;32.60;55.80
81315;DHT22;72214;52.510;5.718;2023-09-08T14:42:41;32.70;55.80
81315;DHT22;72214;52.510;5.718;2023-09-08T14:45:11;32.80;55.70
81315;DHT22;72214;52.510;5.718;2023-09-08T14:47:40;32.80;55.60
81315;DHT22;72214;52.510;5.718;2023-09-08T14:50:12;32.90;55.50
81315;DHT22;72214;52.510;5.718;2023-09-08T14:52:42;32.90;55.50
81315;DHT22;72214;52.510;5.718;2023-09-08T14:55:11;32.90;55.50
81315;DHT22;72214;52.510;5.718;2023-09-08T14:57:40;32.90;55.40
81315;DHT22;72214;52.510;5.718;2023-09-08T15:00:10;32.90;55.40
81315;DHT22;72214;52.510;5.718;2023-09-08T15:02:40;32.90;55.50
81315;DHT22;72214;52.510;5.718;2023-09-08T15:05:12;32.90;55.40
81315;DHT22;72214;52.510;5.718;2023-09-08T15:07:41;33.00;55.30
81315;DHT22;72214;52.510;5.718;2023-09-08T15:10:11;33.00;55.50
81315;DHT22;72214;52.510;5.718;2023-09-08T15:12:40;33.00;55.40
81315;DHT22;72214;52.510;5.718;2023-09-08T15:15:10;33.00;55.40
81315;DHT22;72214;52.510;5.718;2023-09-08T15:17:39;33.00;55.40
81315;DHT22;72214;52.510;5.718;2023-09-08T15:20:09;33.00;55.50
81315;DHT22;72214;52.510;5.718;2023-09-08T15:22:42;33.00;55.40
81315;DHT22;72214;52.510;5.718;2023-09-08T15:25:11;33.00;55.40
81315;DHT22;72214;52.510;5.718;2023-09-08T15:27:40;33.00;55.50
81315;DHT22;72214;52.510;5.718;2023-09-08T15:30:12;33.00;55.60
81315;DHT22;72214;52.510;5.718;2023-09-08T15:32:42;33.00;55.50
81315;DHT22;72214;52.510;5.718;2023-09-08T15:35:11;33.00;55.40
81315;DHT22;72214;52.510;5.718;2023-09-08T15:37:43;33.00;55.30
81315;DHT22;72214;52.510;5.718;2023-09-08T15:40:12;33.00;55.30
81315;DHT22;72214;52.510;5.718;2023-09-08T15:42:42;33.00;55.30
81315;DHT22;72214;52.510;5.718;2023-09-08T15:45:11;33.00;55.30
81315;DHT22;72214;52.510;5.718;2023-09-08T15:47:41;33.00;55.40
81315;DHT22;72214;52.510;5.718;2023-09-08T15:50:10;33.00;55.40